Accueil
METAR-TAF:

METAR-TAF

Aéroports :

Base aérienne 113 Saint-Dizier-Robinson

Saint-Dizier, France

latitude: 48-38N, longitude: 004-54E, altitude: 139 m

Observation

Le bulletin a été fait il y a 17 minutes, à 19:30 UTC
Vent 2 kt de sud-est
Température 2°C
Humidité 87%
Pression 1016 hPa
Visibilité: 6000 m
Quelques nuages à une hauteur de 4000 ft

METAR: LFSI 211930Z AUTO 13002KT 6000 FEW040 02/M00 Q1016

Heure: 20:47 (19:47 UTC)

Prévision

Le bulletin a été fait il y a 5 heures et 47 minutes, à 14:00 UTC
Prévision valable du 21 à 15 UTC au 22 à 15 UTC
Vent 6 kt de nord-est
Visibilité 10 km ou plus
Nuages fragmentés à une hauteur de 4500 ft
Temporairement
du 22 à 02 UTC au 22 à 09 UTC
Visibilité: 0500 m
brouillard givrant

TAF: LFSI 211400Z 2115/2215 05006KT 9999 BKN045 TEMPO 2202/2209 0500 FZFG VV///

Observations et prévisions météorologiques de plus de 4000 aéroports (messages METAR et TAF).

Les stations disponibles sont représentées par des disques jaunes et rouges sur la carte.

Passer la souris dessus pour voir le nom de la station.

Cliquer dessus pour voir les observations et prévisions météorologiques.

Pour changer de carte: cliquez sur les boutons verts avec une croix noire pour zoomer, sur le bouton vert avec un tiret pour effectuer un zoom arrière, ou sur les flèches vertes pour les cartes adjacentes.


METAR-TAF: